sensor_id;sensor_type;location;lat;lon;timestamp;P1;durP1;ratioP1;P2;durP2;ratioP2
3447;SDS011;1738;49.500;17.736;2023-05-08T00:01:44;7.37;;;4.47;;
3447;SDS011;1738;49.500;17.736;2023-05-08T00:04:10;5.40;;;3.73;;
3447;SDS011;1738;49.500;17.736;2023-05-08T00:06:36;8.20;;;5.40;;
3447;SDS011;1738;49.500;17.736;2023-05-08T00:09:02;18.70;;;8.63;;
3447;SDS011;1738;49.500;17.736;2023-05-08T00:11:28;8.95;;;5.47;;
3447;SDS011;1738;49.500;17.736;2023-05-08T00:13:54;7.47;;;5.30;;
3447;SDS011;1738;49.500;17.736;2023-05-08T00:16:19;10.70;;;6.50;;
3447;SDS011;1738;49.500;17.736;2023-05-08T00:18:45;14.50;;;7.20;;
3447;SDS011;1738;49.500;17.736;2023-05-08T00:21:12;9.80;;;6.68;;
3447;SDS011;1738;49.500;17.736;2023-05-08T00:23:38;8.97;;;7.07;;
3447;SDS011;1738;49.500;17.736;2023-05-08T00:26:03;8.00;;;5.97;;
3447;SDS011;1738;49.500;17.736;2023-05-08T00:28:29;9.37;;;5.50;;
3447;SDS011;1738;49.500;17.736;2023-05-08T00:30:58;7.20;;;4.90;;
3447;SDS011;1738;49.500;17.736;2023-05-08T00:33:21;11.10;;;7.60;;
3447;SDS011;1738;49.500;17.736;2023-05-08T00:35:47;11.83;;;8.10;;
3447;SDS011;1738;49.500;17.736;2023-05-08T00:38:13;13.10;;;7.90;;
3447;SDS011;1738;49.500;17.736;2023-05-08T00:40:39;13.10;;;8.33;;
3447;SDS011;1738;49.500;17.736;2023-05-08T00:43:04;9.73;;;6.50;;
3447;SDS011;1738;49.500;17.736;2023-05-08T00:45:32;7.80;;;4.67;;
3447;SDS011;1738;49.500;17.736;2023-05-08T00:47:57;10.15;;;5.82;;
3447;SDS011;1738;49.500;17.736;2023-05-08T00:50:23;12.07;;;6.73;;
3447;SDS011;1738;49.500;17.736;2023-05-08T00:52:49;10.70;;;7.60;;
3447;SDS011;1738;49.500;17.736;2023-05-08T00:55:14;11.63;;;7.13;;
3447;SDS011;1738;49.500;17.736;2023-05-08T00:57:40;9.73;;;7.20;;
3447;SDS011;1738;49.500;17.736;2023-05-08T01:00:06;10.82;;;7.22;;
3447;SDS011;1738;49.500;17.736;2023-05-08T01:02:33;14.83;;;6.33;;
3447;SDS011;1738;49.500;17.736;2023-05-08T01:04:59;14.40;;;7.47;;
3447;SDS011;1738;49.500;17.736;2023-05-08T01:07:25;10.00;;;6.70;;
3447;SDS011;1738;49.500;17.736;2023-05-08T01:09:50;9.50;;;5.30;;
3447;SDS011;1738;49.500;17.736;2023-05-08T01:12:19;13.80;;;8.40;;
3447;SDS011;1738;49.500;17.736;2023-05-08T01:14:48;7.17;;;4.30;;
3447;SDS011;1738;49.500;17.736;2023-05-08T01:20:03;7.07;;;4.50;;
3447;SDS011;1738;49.500;17.736;2023-05-08T01:22:18;8.33;;;5.53;;
3447;SDS011;1738;49.500;17.736;2023-05-08T01:24:41;8.97;;;6.53;;
3447;SDS011;1738;49.500;17.736;2023-05-08T01:27:17;6.90;;;5.10;;
3447;SDS011;1738;49.500;17.736;2023-05-08T01:29:58;7.80;;;5.67;;
3447;SDS011;1738;49.500;17.736;2023-05-08T01:32:22;8.13;;;5.37;;
3447;SDS011;1738;49.500;17.736;2023-05-08T01:37:33;7.37;;;5.00;;
3447;SDS011;1738;49.500;17.736;2023-05-08T01:40:08;9.13;;;6.97;;
3447;SDS011;1738;49.500;17.736;2023-05-08T01:42:42;12.13;;;8.37;;
3447;SDS011;1738;49.500;17.736;2023-05-08T01:45:06;12.37;;;7.53;;
3447;SDS011;1738;49.500;17.736;2023-05-08T01:47:31;8.90;;;6.20;;
3447;SDS011;1738;49.500;17.736;2023-05-08T01:50:01;10.07;;;6.65;;
3447;SDS011;1738;49.500;17.736;2023-05-08T01:52:32;9.45;;;4.93;;
3447;SDS011;1738;49.500;17.736;2023-05-08T01:55:00;11.53;;;6.47;;
3447;SDS011;1738;49.500;17.736;2023-05-08T01:57:25;9.53;;;5.80;;
3447;SDS011;1738;49.500;17.736;2023-05-08T01:59:50;6.97;;;4.40;;
3447;SDS011;1738;49.500;17.736;2023-05-08T02:02:16;10.40;;;7.03;;
3447;SDS011;1738;49.500;17.736;2023-05-08T02:04:42;6.33;;;4.90;;
3447;SDS011;1738;49.500;17.736;2023-05-08T02:07:07;7.40;;;4.90;;
3447;SDS011;1738;49.500;17.736;2023-05-08T02:09:33;6.97;;;4.67;;
3447;SDS011;1738;49.500;17.736;2023-05-08T02:11:59;9.13;;;6.17;;
3447;SDS011;1738;49.500;17.736;2023-05-08T02:14:25;9.38;;;5.85;;
3447;SDS011;1738;49.500;17.736;2023-05-08T02:16:51;9.10;;;5.53;;
3447;SDS011;1738;49.500;17.736;2023-05-08T02:19:17;9.97;;;6.80;;
3447;SDS011;1738;49.500;17.736;2023-05-08T02:21:43;10.83;;;5.17;;
3447;SDS011;1738;49.500;17.736;2023-05-08T02:24:08;4.47;;;3.37;;
3447;SDS011;1738;49.500;17.736;2023-05-08T02:26:34;10.77;;;6.00;;
3447;SDS011;1738;49.500;17.736;2023-05-08T02:29:01;7.00;;;4.27;;
3447;SDS011;1738;49.500;17.736;2023-05-08T02:31:26;15.37;;;5.90;;
3447;SDS011;1738;49.500;17.736;2023-05-08T02:33:52;5.43;;;3.60;;
3447;SDS011;1738;49.500;17.736;2023-05-08T02:36:18;10.13;;;6.57;;
3447;SDS011;1738;49.500;17.736;2023-05-08T02:38:44;7.93;;;4.30;;
3447;SDS011;1738;49.500;17.736;2023-05-08T02:41:10;8.87;;;6.20;;
3447;SDS011;1738;49.500;17.736;2023-05-08T02:43:35;10.43;;;6.80;;
3447;SDS011;1738;49.500;17.736;2023-05-08T02:46:13;7.17;;;4.30;;
3447;SDS011;1738;49.500;17.736;2023-05-08T02:48:43;7.83;;;6.00;;
3447;SDS011;1738;49.500;17.736;2023-05-08T02:53:39;8.37;;;6.07;;
3447;SDS011;1738;49.500;17.736;2023-05-08T02:56:09;10.07;;;5.63;;
3447;SDS011;1738;49.500;17.736;2023-05-08T02:58:41;5.95;;;3.83;;
3447;SDS011;1738;49.500;17.736;2023-05-08T03:01:07;10.73;;;7.23;;
3447;SDS011;1738;49.500;17.736;2023-05-08T03:03:36;8.67;;;3.63;;
3447;SDS011;1738;49.500;17.736;2023-05-08T03:06:01;10.23;;;5.80;;
3447;SDS011;1738;49.500;17.736;2023-05-08T03:08:28;4.87;;;3.20;;
3447;SDS011;1738;49.500;17.736;2023-05-08T03:10:53;7.30;;;4.80;;
3447;SDS011;1738;49.500;17.736;2023-05-08T03:13:18;7.47;;;3.60;;
3447;SDS011;1738;49.500;17.736;2023-05-08T03:15:48;6.83;;;4.40;;
3447;SDS011;1738;49.500;17.736;2023-05-08T03:18:14;8.80;;;5.80;;
3447;SDS011;1738;49.500;17.736;2023-05-08T03:20:40;7.97;;;5.68;;
3447;SDS011;1738;49.500;17.736;2023-05-08T03:23:05;8.07;;;5.37;;
3447;SDS011;1738;49.500;17.736;2023-05-08T03:25:31;9.90;;;3.87;;
3447;SDS011;1738;49.500;17.736;2023-05-08T03:27:57;6.18;;;4.43;;
3447;SDS011;1738;49.500;17.736;2023-05-08T03:30:23;5.90;;;3.90;;
3447;SDS011;1738;49.500;17.736;2023-05-08T03:32:48;6.13;;;4.77;;
3447;SDS011;1738;49.500;17.736;2023-05-08T03:35:14;6.80;;;4.67;;
3447;SDS011;1738;49.500;17.736;2023-05-08T03:37:40;9.03;;;5.80;;
3447;SDS011;1738;49.500;17.736;2023-05-08T03:40:06;9.70;;;5.10;;
3447;SDS011;1738;49.500;17.736;2023-05-08T03:42:32;6.67;;;5.23;;
3447;SDS011;1738;49.500;17.736;2023-05-08T03:44:58;8.57;;;5.27;;
3447;SDS011;1738;49.500;17.736;2023-05-08T03:47:24;6.33;;;4.43;;
3447;SDS011;1738;49.500;17.736;2023-05-08T03:49:51;6.30;;;4.43;;
3447;SDS011;1738;49.500;17.736;2023-05-08T03:52:17;7.43;;;4.87;;
3447;SDS011;1738;49.500;17.736;2023-05-08T03:54:42;4.93;;;3.67;;
3447;SDS011;1738;49.500;17.736;2023-05-08T03:57:08;6.77;;;4.23;;
3447;SDS011;1738;49.500;17.736;2023-05-08T03:59:41;7.37;;;4.57;;
3447;SDS011;1738;49.500;17.736;2023-05-08T04:04:46;9.20;;;4.47;;
3447;SDS011;1738;49.500;17.736;2023-05-08T04:07:14;5.90;;;5.20;;
3447;SDS011;1738;49.500;17.736;2023-05-08T04:10:00;8.18;;;4.85;;
3447;SDS011;1738;49.500;17.736;2023-05-08T04:12:30;6.40;;;3.33;;
3447;SDS011;1738;49.500;17.736;2023-05-08T04:14:52;7.35;;;4.53;;
3447;SDS011;1738;49.500;17.736;2023-05-08T04:17:21;6.20;;;4.87;;
3447;SDS011;1738;49.500;17.736;2023-05-08T04:19:44;5.27;;;3.57;;
3447;SDS011;1738;49.500;17.736;2023-05-08T04:22:09;5.87;;;4.28;;
3447;SDS011;1738;49.500;17.736;2023-05-08T04:24:36;8.13;;;4.87;;
3447;SDS011;1738;49.500;17.736;2023-05-08T04:27:00;6.83;;;4.87;;
3447;SDS011;1738;49.500;17.736;2023-05-08T04:29:26;6.80;;;4.53;;
3447;SDS011;1738;49.500;17.736;2023-05-08T04:31:52;4.45;;;3.25;;
3447;SDS011;1738;49.500;17.736;2023-05-08T04:34:18;9.03;;;5.70;;
3447;SDS011;1738;49.500;17.736;2023-05-08T04:36:44;6.57;;;4.33;;
3447;SDS011;1738;49.500;17.736;2023-05-08T04:39:10;5.70;;;4.10;;
3447;SDS011;1738;49.500;17.736;2023-05-08T04:41:36;6.97;;;4.27;;
3447;SDS011;1738;49.500;17.736;2023-05-08T04:44:02;5.00;;;3.80;;
3447;SDS011;1738;49.500;17.736;2023-05-08T04:46:28;9.17;;;5.37;;
3447;SDS011;1738;49.500;17.736;2023-05-08T04:48:54;6.83;;;3.60;;
3447;SDS011;1738;49.500;17.736;2023-05-08T04:51:20;5.90;;;4.93;;
3447;SDS011;1738;49.500;17.736;2023-05-08T04:53:45;4.50;;;3.27;;
3447;SDS011;1738;49.500;17.736;2023-05-08T04:56:11;9.83;;;5.40;;
3447;SDS011;1738;49.500;17.736;2023-05-08T04:58:37;7.50;;;6.10;;
3447;SDS011;1738;49.500;17.736;2023-05-08T05:01:03;6.97;;;4.10;;
3447;SDS011;1738;49.500;17.736;2023-05-08T05:03:29;6.20;;;3.80;;
3447;SDS011;1738;49.500;17.736;2023-05-08T05:05:56;7.63;;;4.13;;
3447;SDS011;1738;49.500;17.736;2023-05-08T05:08:21;8.27;;;4.60;;
3447;SDS011;1738;49.500;17.736;2023-05-08T05:10:47;5.25;;;3.33;;
3447;SDS011;1738;49.500;17.736;2023-05-08T05:13:13;5.30;;;4.10;;
3447;SDS011;1738;49.500;17.736;2023-05-08T05:15:41;6.20;;;3.77;;
3447;SDS011;1738;49.500;17.736;2023-05-08T05:18:05;8.20;;;4.20;;
3447;SDS011;1738;49.500;17.736;2023-05-08T05:20:31;7.10;;;3.27;;
3447;SDS011;1738;49.500;17.736;2023-05-08T05:22:56;7.75;;;3.95;;
3447;SDS011;1738;49.500;17.736;2023-05-08T05:25:22;4.90;;;3.67;;
3447;SDS011;1738;49.500;17.736;2023-05-08T05:27:48;3.30;;;2.63;;
3447;SDS011;1738;49.500;17.736;2023-05-08T05:30:14;6.43;;;4.23;;
3447;SDS011;1738;49.500;17.736;2023-05-08T05:32:40;6.47;;;2.87;;
3447;SDS011;1738;49.500;17.736;2023-05-08T05:35:06;6.60;;;4.30;;
3447;SDS011;1738;49.500;17.736;2023-05-08T05:37:32;14.60;;;4.80;;
3447;SDS011;1738;49.500;17.736;2023-05-08T05:39:58;6.40;;;4.70;;
3447;SDS011;1738;49.500;17.736;2023-05-08T05:42:24;4.20;;;3.30;;
3447;SDS011;1738;49.500;17.736;2023-05-08T05:44:50;7.50;;;5.63;;
3447;SDS011;1738;49.500;17.736;2023-05-08T05:47:15;12.50;;;4.63;;
3447;SDS011;1738;49.500;17.736;2023-05-08T05:49:41;6.63;;;4.40;;
3447;SDS011;1738;49.500;17.736;2023-05-08T05:52:07;6.60;;;4.17;;
3447;SDS011;1738;49.500;17.736;2023-05-08T05:54:33;6.57;;;4.40;;
3447;SDS011;1738;49.500;17.736;2023-05-08T05:56:59;7.60;;;5.73;;
3447;SDS011;1738;49.500;17.736;2023-05-08T05:59:25;6.47;;;4.63;;
3447;SDS011;1738;49.500;17.736;2023-05-08T06:01:51;5.67;;;3.37;;
3447;SDS011;1738;49.500;17.736;2023-05-08T06:04:16;5.00;;;3.20;;
3447;SDS011;1738;49.500;17.736;2023-05-08T06:06:42;4.70;;;3.73;;
3447;SDS011;1738;49.500;17.736;2023-05-08T06:09:08;3.73;;;2.33;;
3447;SDS011;1738;49.500;17.736;2023-05-08T06:11:34;5.20;;;3.40;;
3447;SDS011;1738;49.500;17.736;2023-05-08T06:14:00;5.60;;;3.30;;
3447;SDS011;1738;49.500;17.736;2023-05-08T06:16:26;5.30;;;3.10;;
3447;SDS011;1738;49.500;17.736;2023-05-08T06:18:52;6.50;;;3.23;;
3447;SDS011;1738;49.500;17.736;2023-05-08T06:21:17;3.50;;;2.60;;
3447;SDS011;1738;49.500;17.736;2023-05-08T06:23:43;6.90;;;3.60;;
3447;SDS011;1738;49.500;17.736;2023-05-08T06:26:09;6.37;;;3.10;;
3447;SDS011;1738;49.500;17.736;2023-05-08T06:28:36;3.80;;;2.50;;
3447;SDS011;1738;49.500;17.736;2023-05-08T06:31:02;4.17;;;2.50;;
3447;SDS011;1738;49.500;17.736;2023-05-08T06:33:28;6.83;;;3.83;;
3447;SDS011;1738;49.500;17.736;2023-05-08T06:35:54;4.85;;;3.12;;
3447;SDS011;1738;49.500;17.736;2023-05-08T06:38:20;8.77;;;4.33;;
3447;SDS011;1738;49.500;17.736;2023-05-08T06:40:46;4.13;;;1.93;;
3447;SDS011;1738;49.500;17.736;2023-05-08T06:43:12;8.30;;;2.90;;
3447;SDS011;1738;49.500;17.736;2023-05-08T06:45:38;4.80;;;2.90;;
3447;SDS011;1738;49.500;17.736;2023-05-08T06:48:03;4.50;;;2.47;;
3447;SDS011;1738;49.500;17.736;2023-05-08T06:50:29;9.03;;;5.07;;
3447;SDS011;1738;49.500;17.736;2023-05-08T06:52:55;6.47;;;4.03;;
3447;SDS011;1738;49.500;17.736;2023-05-08T06:55:21;5.43;;;3.20;;
3447;SDS011;1738;49.500;17.736;2023-05-08T06:57:47;5.73;;;3.57;;
3447;SDS011;1738;49.500;17.736;2023-05-08T07:00:13;5.90;;;3.80;;
3447;SDS011;1738;49.500;17.736;2023-05-08T07:02:39;6.00;;;3.70;;
3447;SDS011;1738;49.500;17.736;2023-05-08T07:05:05;5.07;;;4.10;;
3447;SDS011;1738;49.500;17.736;2023-05-08T07:07:31;7.00;;;3.73;;
3447;SDS011;1738;49.500;17.736;2023-05-08T07:09:56;3.87;;;3.37;;
3447;SDS011;1738;49.500;17.736;2023-05-08T07:12:22;6.93;;;3.50;;
3447;SDS011;1738;49.500;17.736;2023-05-08T07:14:48;4.50;;;3.20;;
3447;SDS011;1738;49.500;17.736;2023-05-08T07:17:14;5.03;;;3.37;;
3447;SDS011;1738;49.500;17.736;2023-05-08T07:19:40;7.73;;;3.00;;
3447;SDS011;1738;49.500;17.736;2023-05-08T07:22:06;7.53;;;4.50;;
3447;SDS011;1738;49.500;17.736;2023-05-08T07:24:31;8.63;;;3.90;;
3447;SDS011;1738;49.500;17.736;2023-05-08T07:26:57;4.10;;;2.93;;
3447;SDS011;1738;49.500;17.736;2023-05-08T07:29:25;5.13;;;3.07;;
3447;SDS011;1738;49.500;17.736;2023-05-08T07:31:51;5.87;;;3.33;;
3447;SDS011;1738;49.500;17.736;2023-05-08T07:34:17;5.57;;;3.05;;
3447;SDS011;1738;49.500;17.736;2023-05-08T07:36:42;9.00;;;4.37;;
3447;SDS011;1738;49.500;17.736;2023-05-08T07:39:08;6.00;;;3.70;;
3447;SDS011;1738;49.500;17.736;2023-05-08T07:41:34;6.80;;;2.83;;
3447;SDS011;1738;49.500;17.736;2023-05-08T07:44:00;5.70;;;2.80;;
3447;SDS011;1738;49.500;17.736;2023-05-08T07:46:26;5.27;;;2.17;;
3447;SDS011;1738;49.500;17.736;2023-05-08T07:48:52;4.63;;;3.13;;
3447;SDS011;1738;49.500;17.736;2023-05-08T07:51:18;5.00;;;3.87;;
3447;SDS011;1738;49.500;17.736;2023-05-08T07:53:43;4.80;;;3.20;;
3447;SDS011;1738;49.500;17.736;2023-05-08T07:56:09;5.00;;;3.80;;
3447;SDS011;1738;49.500;17.736;2023-05-08T07:58:35;8.73;;;3.30;;
3447;SDS011;1738;49.500;17.736;2023-05-08T08:01:01;7.43;;;3.77;;
3447;SDS011;1738;49.500;17.736;2023-05-08T08:03:27;4.60;;;2.97;;
3447;SDS011;1738;49.500;17.736;2023-05-08T08:05:53;5.13;;;3.60;;
3447;SDS011;1738;49.500;17.736;2023-05-08T08:08:18;3.33;;;2.40;;
3447;SDS011;1738;49.500;17.736;2023-05-08T08:10:44;5.00;;;3.80;;
3447;SDS011;1738;49.500;17.736;2023-05-08T08:13:10;4.20;;;3.00;;
3447;SDS011;1738;49.500;17.736;2023-05-08T08:15:36;5.40;;;3.67;;
3447;SDS011;1738;49.500;17.736;2023-05-08T08:18:02;5.83;;;3.40;;
3447;SDS011;1738;49.500;17.736;2023-05-08T08:20:28;7.43;;;4.90;;
3447;SDS011;1738;49.500;17.736;2023-05-08T08:22:54;5.20;;;4.50;;
3447;SDS011;1738;49.500;17.736;2023-05-08T08:25:20;6.53;;;4.33;;
3447;SDS011;1738;49.500;17.736;2023-05-08T08:27:45;8.13;;;4.40;;
3447;SDS011;1738;49.500;17.736;2023-05-08T08:30:11;6.97;;;4.20;;
3447;SDS011;1738;49.500;17.736;2023-05-08T08:32:37;9.80;;;4.73;;
3447;SDS011;1738;49.500;17.736;2023-05-08T08:35:03;6.80;;;4.37;;
3447;SDS011;1738;49.500;17.736;2023-05-08T08:37:29;5.80;;;3.67;;
3447;SDS011;1738;49.500;17.736;2023-05-08T08:39:55;6.03;;;3.40;;
3447;SDS011;1738;49.500;17.736;2023-05-08T08:42:21;5.60;;;3.17;;
3447;SDS011;1738;49.500;17.736;2023-05-08T08:44:47;6.50;;;4.87;;
3447;SDS011;1738;49.500;17.736;2023-05-08T08:47:12;3.90;;;3.10;;
3447;SDS011;1738;49.500;17.736;2023-05-08T08:49:41;5.73;;;4.20;;
3447;SDS011;1738;49.500;17.736;2023-05-08T08:52:10;6.77;;;4.80;;
3447;SDS011;1738;49.500;17.736;2023-05-08T08:54:33;3.70;;;2.90;;
3447;SDS011;1738;49.500;17.736;2023-05-08T08:57:00;6.83;;;4.40;;
3447;SDS011;1738;49.500;17.736;2023-05-08T08:59:25;5.90;;;3.93;;
3447;SDS011;1738;49.500;17.736;2023-05-08T09:01:52;8.53;;;6.90;;
3447;SDS011;1738;49.500;17.736;2023-05-08T09:04:17;8.80;;;5.53;;
3447;SDS011;1738;49.500;17.736;2023-05-08T09:06:43;9.45;;;4.53;;
3447;SDS011;1738;49.500;17.736;2023-05-08T09:09:09;5.33;;;4.17;;
3447;SDS011;1738;49.500;17.736;2023-05-08T09:11:35;6.50;;;5.03;;
3447;SDS011;1738;49.500;17.736;2023-05-08T09:14:00;8.90;;;4.80;;
3447;SDS011;1738;49.500;17.736;2023-05-08T09:16:26;6.57;;;5.47;;
3447;SDS011;1738;49.500;17.736;2023-05-08T09:18:52;6.10;;;5.13;;
3447;SDS011;1738;49.500;17.736;2023-05-08T09:21:18;6.95;;;4.72;;
3447;SDS011;1738;49.500;17.736;2023-05-08T09:24:03;7.70;;;5.53;;
3447;SDS011;1738;49.500;17.736;2023-05-08T09:26:33;5.93;;;4.40;;
3447;SDS011;1738;49.500;17.736;2023-05-08T09:31:37;5.97;;;4.53;;
3447;SDS011;1738;49.500;17.736;2023-05-08T09:34:05;7.37;;;4.70;;
3447;SDS011;1738;49.500;17.736;2023-05-08T09:36:31;13.20;;;5.00;;
3447;SDS011;1738;49.500;17.736;2023-05-08T09:38:57;7.07;;;4.20;;
3447;SDS011;1738;49.500;17.736;2023-05-08T09:41:22;6.80;;;4.47;;
3447;SDS011;1738;49.500;17.736;2023-05-08T09:46:22;5.13;;;3.70;;
3447;SDS011;1738;49.500;17.736;2023-05-08T09:48:48;4.83;;;3.17;;
3447;SDS011;1738;49.500;17.736;2023-05-08T09:51:13;6.40;;;3.83;;
3447;SDS011;1738;49.500;17.736;2023-05-08T09:53:39;6.77;;;4.63;;
3447;SDS011;1738;49.500;17.736;2023-05-08T09:56:05;5.10;;;3.93;;
3447;SDS011;1738;49.500;17.736;2023-05-08T09:58:38;6.57;;;3.77;;
3447;SDS011;1738;49.500;17.736;2023-05-08T10:01:03;10.90;;;4.50;;
3447;SDS011;1738;49.500;17.736;2023-05-08T10:06:12;5.13;;;3.73;;
3447;SDS011;1738;49.500;17.736;2023-05-08T10:08:38;6.00;;;3.37;;
3447;SDS011;1738;49.500;17.736;2023-05-08T10:13:35;6.28;;;2.90;;
3447;SDS011;1738;49.500;17.736;2023-05-08T10:16:02;7.50;;;4.60;;
3447;SDS011;1738;49.500;17.736;2023-05-08T10:18:28;5.70;;;3.37;;
3447;SDS011;1738;49.500;17.736;2023-05-08T10:20:53;6.45;;;3.65;;
3447;SDS011;1738;49.500;17.736;2023-05-08T10:23:19;5.90;;;4.07;;
3447;SDS011;1738;49.500;17.736;2023-05-08T10:25:46;4.47;;;3.47;;
3447;SDS011;1738;49.500;17.736;2023-05-08T10:28:15;8.00;;;3.17;;
3447;SDS011;1738;49.500;17.736;2023-05-08T10:30:41;6.83;;;3.73;;
3447;SDS011;1738;49.500;17.736;2023-05-08T10:33:05;4.97;;;3.37;;
3447;SDS011;1738;49.500;17.736;2023-05-08T10:35:29;5.17;;;3.57;;
3447;SDS011;1738;49.500;17.736;2023-05-08T10:37:55;3.95;;;3.25;;
3447;SDS011;1738;49.500;17.736;2023-05-08T10:40:21;5.07;;;3.20;;
3447;SDS011;1738;49.500;17.736;2023-05-08T10:42:47;5.00;;;3.17;;
3447;SDS011;1738;49.500;17.736;2023-05-08T10:45:13;4.57;;;3.30;;
3447;SDS011;1738;49.500;17.736;2023-05-08T10:47:58;8.90;;;4.17;;
3447;SDS011;1738;49.500;17.736;2023-05-08T10:53:06;6.60;;;4.07;;
3447;SDS011;1738;49.500;17.736;2023-05-08T10:55:31;7.33;;;4.40;;
3447;SDS011;1738;49.500;17.736;2023-05-08T10:58:02;7.73;;;4.33;;
3447;SDS011;1738;49.500;17.736;2023-05-08T11:00:31;8.37;;;4.30;;
3447;SDS011;1738;49.500;17.736;2023-05-08T11:03:03;7.50;;;4.03;;
3447;SDS011;1738;49.500;17.736;2023-05-08T11:05:22;7.27;;;5.87;;
3447;SDS011;1738;49.500;17.736;2023-05-08T11:07:53;8.80;;;4.57;;
3447;SDS011;1738;49.500;17.736;2023-05-08T11:10:19;6.20;;;3.37;;
3447;SDS011;1738;49.500;17.736;2023-05-08T11:12:47;6.40;;;3.20;;
3447;SDS011;1738;49.500;17.736;2023-05-08T11:15:10;9.07;;;4.40;;
3447;SDS011;1738;49.500;17.736;2023-05-08T11:17:37;6.40;;;4.93;;
3447;SDS011;1738;49.500;17.736;2023-05-08T11:20:03;7.37;;;3.83;;
3447;SDS011;1738;49.500;17.736;2023-05-08T11:22:32;6.07;;;4.00;;
3447;SDS011;1738;49.500;17.736;2023-05-08T11:25:02;5.73;;;4.20;;
3447;SDS011;1738;49.500;17.736;2023-05-08T11:27:32;7.07;;;4.63;;
3447;SDS011;1738;49.500;17.736;2023-05-08T11:32:54;5.40;;;3.50;;
3447;SDS011;1738;49.500;17.736;2023-05-08T11:35:05;4.90;;;2.80;;
3447;SDS011;1738;49.500;17.736;2023-05-08T11:37:31;9.23;;;4.43;;
3447;SDS011;1738;49.500;17.736;2023-05-08T11:39:57;5.50;;;3.90;;
3447;SDS011;1738;49.500;17.736;2023-05-08T11:45:05;8.83;;;4.50;;
3447;SDS011;1738;49.500;17.736;2023-05-08T11:47:36;50.85;;;4.87;;
3447;SDS011;1738;49.500;17.736;2023-05-08T11:50:01;5.25;;;3.33;;
3447;SDS011;1738;49.500;17.736;2023-05-08T11:52:27;8.33;;;3.23;;
3447;SDS011;1738;49.500;17.736;2023-05-08T11:54:53;5.60;;;3.60;;
3447;SDS011;1738;49.500;17.736;2023-05-08T11:57:19;11.77;;;4.35;;
3447;SDS011;1738;49.500;17.736;2023-05-08T11:59:48;5.23;;;3.10;;
3447;SDS011;1738;49.500;17.736;2023-05-08T12:02:11;5.27;;;3.40;;
3447;SDS011;1738;49.500;17.736;2023-05-08T12:04:43;4.43;;;3.50;;
3447;SDS011;1738;49.500;17.736;2023-05-08T12:07:08;5.80;;;3.00;;
3447;SDS011;1738;49.500;17.736;2023-05-08T12:09:34;7.70;;;4.80;;
3447;SDS011;1738;49.500;17.736;2023-05-08T12:12:00;4.63;;;3.20;;
3447;SDS011;1738;49.500;17.736;2023-05-08T12:14:26;6.43;;;4.53;;
3447;SDS011;1738;49.500;17.736;2023-05-08T12:16:51;7.93;;;4.30;;
3447;SDS011;1738;49.500;17.736;2023-05-08T12:19:17;7.47;;;4.40;;
3447;SDS011;1738;49.500;17.736;2023-05-08T12:21:44;6.20;;;4.10;;
3447;SDS011;1738;49.500;17.736;2023-05-08T12:24:10;4.70;;;3.70;;
3447;SDS011;1738;49.500;17.736;2023-05-08T12:26:36;4.50;;;3.40;;
3447;SDS011;1738;49.500;17.736;2023-05-08T12:29:04;4.47;;;3.40;;
3447;SDS011;1738;49.500;17.736;2023-05-08T12:31:28;9.87;;;5.47;;
3447;SDS011;1738;49.500;17.736;2023-05-08T12:33:53;7.00;;;3.80;;
3447;SDS011;1738;49.500;17.736;2023-05-08T12:36:19;5.10;;;3.20;;
3447;SDS011;1738;49.500;17.736;2023-05-08T12:38:45;5.60;;;3.57;;
3447;SDS011;1738;49.500;17.736;2023-05-08T12:41:11;5.33;;;4.27;;
3447;SDS011;1738;49.500;17.736;2023-05-08T12:43:37;17.77;;;4.10;;
3447;SDS011;1738;49.500;17.736;2023-05-08T12:46:03;10.40;;;3.37;;
3447;SDS011;1738;49.500;17.736;2023-05-08T12:48:29;5.90;;;3.57;;
3447;SDS011;1738;49.500;17.736;2023-05-08T12:50:59;10.87;;;3.57;;
3447;SDS011;1738;49.500;17.736;2023-05-08T12:53:21;15.13;;;4.60;;
3447;SDS011;1738;49.500;17.736;2023-05-08T12:55:50;5.40;;;3.20;;
3447;SDS011;1738;49.500;17.736;2023-05-08T12:58:16;5.10;;;2.70;;
3447;SDS011;1738;49.500;17.736;2023-05-08T13:00:44;7.85;;;3.58;;
3447;SDS011;1738;49.500;17.736;2023-05-08T13:03:08;4.47;;;3.70;;
3447;SDS011;1738;49.500;17.736;2023-05-08T13:05:34;6.70;;;3.87;;
3447;SDS011;1738;49.500;17.736;2023-05-08T13:08:00;4.10;;;2.73;;
3447;SDS011;1738;49.500;17.736;2023-05-08T13:10:26;5.57;;;3.67;;
3447;SDS011;1738;49.500;17.736;2023-05-08T13:12:52;5.97;;;2.63;;
3447;SDS011;1738;49.500;17.736;2023-05-08T13:15:17;5.87;;;3.30;;
3447;SDS011;1738;49.500;17.736;2023-05-08T13:17:43;3.83;;;2.70;;
3447;SDS011;1738;49.500;17.736;2023-05-08T13:20:09;4.55;;;2.55;;
3447;SDS011;1738;49.500;17.736;2023-05-08T13:22:35;5.03;;;3.20;;
3447;SDS011;1738;49.500;17.736;2023-05-08T13:25:01;7.67;;;3.27;;
3447;SDS011;1738;49.500;17.736;2023-05-08T13:27:27;6.47;;;2.90;;
3447;SDS011;1738;49.500;17.736;2023-05-08T13:29:53;10.33;;;4.40;;
3447;SDS011;1738;49.500;17.736;2023-05-08T13:32:19;8.23;;;3.83;;
3447;SDS011;1738;49.500;17.736;2023-05-08T13:34:45;5.80;;;4.18;;
3447;SDS011;1738;49.500;17.736;2023-05-08T13:37:11;9.50;;;4.87;;
3447;SDS011;1738;49.500;17.736;2023-05-08T13:39:36;6.70;;;4.60;;
3447;SDS011;1738;49.500;17.736;2023-05-08T13:42:02;4.97;;;2.90;;
3447;SDS011;1738;49.500;17.736;2023-05-08T13:44:28;10.50;;;3.63;;
3447;SDS011;1738;49.500;17.736;2023-05-08T13:46:54;5.60;;;2.77;;
3447;SDS011;1738;49.500;17.736;2023-05-08T13:49:20;4.20;;;2.97;;
3447;SDS011;1738;49.500;17.736;2023-05-08T13:51:46;4.23;;;3.53;;
3447;SDS011;1738;49.500;17.736;2023-05-08T13:54:12;4.97;;;3.37;;
3447;SDS011;1738;49.500;17.736;2023-05-08T13:56:37;6.80;;;3.30;;
3447;SDS011;1738;49.500;17.736;2023-05-08T13:59:03;6.18;;;4.40;;
3447;SDS011;1738;49.500;17.736;2023-05-08T14:01:29;5.10;;;3.10;;
3447;SDS011;1738;49.500;17.736;2023-05-08T14:03:55;7.47;;;3.35;;
3447;SDS011;1738;49.500;17.736;2023-05-08T14:06:21;7.00;;;4.77;;
3447;SDS011;1738;49.500;17.736;2023-05-08T14:08:47;6.80;;;3.87;;
3447;SDS011;1738;49.500;17.736;2023-05-08T14:11:13;5.33;;;3.20;;
3447;SDS011;1738;49.500;17.736;2023-05-08T14:13:39;7.53;;;4.20;;
3447;SDS011;1738;49.500;17.736;2023-05-08T14:16:05;7.03;;;3.60;;
3447;SDS011;1738;49.500;17.736;2023-05-08T14:18:31;6.93;;;3.80;;
3447;SDS011;1738;49.500;17.736;2023-05-08T14:20:56;5.63;;;3.77;;
3447;SDS011;1738;49.500;17.736;2023-05-08T14:23:22;7.53;;;3.60;;
3447;SDS011;1738;49.500;17.736;2023-05-08T14:25:48;5.12;;;3.80;;
3447;SDS011;1738;49.500;17.736;2023-05-08T14:28:14;6.50;;;4.00;;
3447;SDS011;1738;49.500;17.736;2023-05-08T14:30:40;7.00;;;3.80;;
3447;SDS011;1738;49.500;17.736;2023-05-08T14:33:06;7.28;;;3.60;;
3447;SDS011;1738;49.500;17.736;2023-05-08T14:35:32;8.03;;;4.00;;
3447;SDS011;1738;49.500;17.736;2023-05-08T14:37:58;4.73;;;3.07;;
3447;SDS011;1738;49.500;17.736;2023-05-08T14:40:24;4.50;;;3.20;;
3447;SDS011;1738;49.500;17.736;2023-05-08T14:42:50;5.93;;;3.67;;
3447;SDS011;1738;49.500;17.736;2023-05-08T14:45:16;5.87;;;3.90;;
3447;SDS011;1738;49.500;17.736;2023-05-08T14:47:41;5.62;;;3.85;;
3447;SDS011;1738;49.500;17.736;2023-05-08T14:50:07;4.50;;;3.33;;
3447;SDS011;1738;49.500;17.736;2023-05-08T14:52:33;7.40;;;3.40;;
3447;SDS011;1738;49.500;17.736;2023-05-08T14:54:59;4.20;;;3.30;;
3447;SDS011;1738;49.500;17.736;2023-05-08T14:57:25;6.23;;;3.03;;
3447;SDS011;1738;49.500;17.736;2023-05-08T14:59:51;4.97;;;3.87;;
3447;SDS011;1738;49.500;17.736;2023-05-08T15:02:17;5.03;;;3.73;;
3447;SDS011;1738;49.500;17.736;2023-05-08T15:04:43;5.00;;;4.10;;
3447;SDS011;1738;49.500;17.736;2023-05-08T15:07:09;5.07;;;3.87;;
3447;SDS011;1738;49.500;17.736;2023-05-08T15:09:34;7.20;;;3.77;;
3447;SDS011;1738;49.500;17.736;2023-05-08T15:12:00;9.57;;;4.30;;
3447;SDS011;1738;49.500;17.736;2023-05-08T15:14:26;7.60;;;3.60;;
3447;SDS011;1738;49.500;17.736;2023-05-08T15:16:52;8.07;;;4.10;;
3447;SDS011;1738;49.500;17.736;2023-05-08T15:19:18;9.47;;;4.10;;
3447;SDS011;1738;49.500;17.736;2023-05-08T15:21:44;5.70;;;3.57;;
3447;SDS011;1738;49.500;17.736;2023-05-08T15:24:10;5.17;;;3.40;;